createdAt,value
2018-02-10T00:02:10.715Z,37.90
2018-02-10T00:04:38.556Z,36.03
2018-02-10T00:07:06.473Z,37.30
2018-02-10T00:09:34.325Z,35.43
2018-02-10T00:12:02.131Z,35.07
2018-02-10T00:14:29.960Z,39.03
2018-02-10T00:16:57.798Z,36.80
2018-02-10T00:19:25.669Z,35.07
2018-02-10T00:21:53.517Z,35.67
2018-02-10T00:24:21.367Z,35.63
2018-02-10T00:26:49.234Z,36.00
2018-02-10T00:29:17.066Z,36.50
2018-02-10T00:31:44.968Z,36.27
2018-02-10T00:34:12.788Z,35.00
2018-02-10T00:36:40.635Z,37.73
2018-02-10T00:39:08.488Z,37.40
2018-02-10T00:41:36.325Z,35.07
2018-02-10T00:44:04.196Z,36.40
2018-02-10T00:46:32.108Z,34.63
2018-02-10T00:48:59.984Z,35.23
2018-02-10T00:51:27.849Z,36.87
2018-02-10T00:53:55.686Z,33.57
2018-02-10T00:56:23.556Z,35.33
2018-02-10T00:58:51.361Z,37.03
2018-02-10T01:01:19.228Z,33.60
2018-02-10T01:03:47.132Z,33.53
2018-02-10T01:06:14.991Z,33.27
2018-02-10T01:08:42.868Z,34.67
2018-02-10T01:11:10.707Z,35.57
2018-02-10T01:13:38.573Z,33.77
2018-02-10T01:16:06.438Z,34.00
2018-02-10T01:18:34.293Z,33.70
2018-02-10T01:21:02.131Z,34.53
2018-02-10T01:23:30.039Z,36.13
2018-02-10T01:25:57.844Z,37.57
2018-02-10T01:28:25.698Z,34.60
2018-02-10T01:30:53.501Z,34.80
2018-02-10T01:33:21.379Z,35.43
2018-02-10T01:35:49.193Z,34.37
2018-02-10T01:38:17.089Z,34.90
2018-02-10T01:40:44.890Z,34.07
2018-02-10T01:43:12.859Z,35.10
2018-02-10T01:45:40.679Z,35.10
2018-02-10T01:48:08.533Z,35.47
2018-02-10T01:50:36.340Z,33.20
2018-02-10T01:53:04.142Z,35.00
2018-02-10T01:55:31.977Z,33.40
2018-02-10T01:57:59.810Z,35.00
2018-02-10T02:00:27.691Z,32.77
2018-02-10T02:02:55.512Z,33.63
2018-02-10T02:05:23.318Z,32.83
2018-02-10T02:07:51.137Z,35.40
2018-02-10T02:10:18.999Z,33.40
2018-02-10T02:12:46.823Z,34.87
2018-02-10T02:15:14.682Z,32.70
2018-02-10T02:17:42.496Z,33.37
2018-02-10T02:20:10.404Z,34.73
2018-02-10T02:22:38.218Z,34.43
2018-02-10T02:25:06.031Z,32.50
2018-02-10T02:27:33.933Z,35.77
2018-02-10T02:30:01.775Z,34.00
2018-02-10T02:32:29.628Z,35.33
2018-02-10T02:34:57.439Z,33.27
2018-02-10T02:37:25.295Z,35.47
2018-02-10T02:39:53.109Z,33.80
2018-02-10T02:42:20.954Z,32.70
2018-02-10T02:44:48.791Z,33.10
2018-02-10T02:47:16.643Z,32.73
2018-02-10T02:49:44.459Z,33.03
2018-02-10T02:52:12.314Z,34.77
2018-02-10T02:54:40.145Z,34.33
2018-02-10T02:57:08.004Z,33.10
2018-02-10T02:59:35.813Z,34.80
2018-02-10T03:02:03.703Z,32.23
2018-02-10T03:04:31.504Z,33.53
2018-02-10T03:06:59.357Z,34.50
2018-02-10T03:09:27.194Z,34.50
2018-02-10T03:11:55.073Z,33.80
2018-02-10T03:14:22.887Z,31.23
2018-02-10T03:16:50.779Z,35.13
2018-02-10T03:19:18.713Z,34.00
2018-02-10T03:21:46.607Z,33.17
2018-02-10T03:24:14.605Z,34.77
2018-02-10T03:26:42.451Z,33.50
2018-02-10T03:29:10.356Z,33.13
2018-02-10T03:31:38.213Z,35.37
2018-02-10T03:34:06.135Z,32.50
2018-02-10T03:36:34.026Z,34.57
2018-02-10T03:39:01.917Z,32.00
2018-02-10T03:41:29.788Z,34.53
2018-02-10T03:43:57.791Z,32.13
2018-02-10T03:46:25.629Z,36.77
2018-02-10T03:48:53.466Z,34.43
2018-02-10T03:51:21.318Z,34.40
2018-02-10T03:53:49.234Z,36.10
2018-02-10T03:56:17.091Z,32.38
2018-02-10T03:58:44.974Z,34.43
2018-02-10T04:01:12.928Z,34.30
2018-02-10T04:03:40.844Z,34.70
2018-02-10T04:06:08.767Z,33.37
2018-02-10T04:08:36.727Z,33.67
2018-02-10T04:11:04.756Z,35.28
2018-02-10T04:13:32.601Z,33.10
2018-02-10T04:16:00.588Z,33.20
2018-02-10T04:18:28.538Z,34.75
2018-02-10T04:20:56.412Z,36.38
2018-02-10T04:23:24.268Z,35.27
2018-02-10T04:25:52.136Z,36.30
2018-02-10T04:28:19.960Z,34.05
2018-02-10T04:30:47.795Z,36.22
2018-02-10T04:33:15.615Z,32.65
2018-02-10T04:35:43.471Z,33.50
2018-02-10T04:38:11.294Z,34.13
2018-02-10T04:40:39.119Z,32.80
2018-02-10T04:43:06.989Z,35.10
2018-02-10T04:45:34.855Z,34.97
2018-02-10T04:48:02.722Z,33.58
2018-02-10T04:50:30.543Z,33.65
2018-02-10T04:52:58.338Z,32.88
2018-02-10T04:55:26.169Z,33.75
2018-02-10T04:57:54.069Z,33.65
2018-02-10T05:00:21.894Z,32.05
2018-02-10T05:02:49.758Z,33.38
2018-02-10T05:05:17.605Z,34.13
2018-02-10T05:07:45.475Z,31.30
2018-02-10T05:10:13.316Z,33.55
2018-02-10T05:12:41.189Z,35.20
2018-02-10T05:15:09.005Z,34.20
2018-02-10T05:17:36.887Z,34.88
2018-02-10T05:20:04.708Z,33.40
2018-02-10T05:22:32.551Z,34.03
2018-02-10T05:25:00.409Z,31.42
2018-02-10T05:27:28.228Z,32.88
2018-02-10T05:29:56.111Z,32.92
2018-02-10T05:32:23.925Z,33.55
2018-02-10T05:34:51.790Z,32.88
2018-02-10T05:37:19.622Z,32.85
2018-02-10T05:39:47.492Z,31.30
2018-02-10T05:42:15.310Z,32.13
2018-02-10T05:44:43.218Z,31.83
2018-02-10T05:47:11.037Z,33.15
2018-02-10T05:49:38.942Z,33.28
2018-02-10T05:52:06.806Z,34.08
2018-02-10T05:54:34.671Z,32.28
2018-02-10T05:57:02.495Z,31.25
2018-02-10T05:59:30.354Z,32.95
2018-02-10T06:01:58.184Z,32.78
2018-02-10T06:04:26.050Z,30.25
2018-02-10T06:06:53.872Z,32.47
2018-02-10T06:09:21.748Z,33.90
2018-02-10T06:11:49.620Z,34.30
2018-02-10T06:14:17.441Z,33.10
2018-02-10T06:16:45.350Z,33.55
2018-02-10T06:19:13.215Z,33.50
2018-02-10T06:21:41.100Z,33.90
2018-02-10T06:24:08.913Z,33.38
2018-02-10T06:26:36.816Z,33.85
2018-02-10T06:29:04.696Z,35.30
2018-02-10T06:31:32.636Z,32.08
2018-02-10T06:34:00.514Z,32.63
2018-02-10T06:36:28.457Z,33.90
2018-02-10T06:38:56.350Z,32.55
2018-02-10T06:41:24.235Z,33.67
2018-02-10T06:43:52.135Z,32.10
2018-02-10T06:46:20.063Z,31.85
2018-02-10T06:48:47.958Z,34.00
2018-02-10T06:51:15.936Z,33.90
2018-02-10T06:53:43.899Z,34.30
2018-02-10T06:56:11.848Z,35.60
2018-02-10T06:58:39.746Z,32.92
2018-02-10T07:01:07.632Z,33.25
2018-02-10T07:03:35.538Z,32.58
2018-02-10T07:06:03.400Z,30.67
2018-02-10T07:08:31.313Z,33.40
2018-02-10T07:10:59.147Z,31.55
2018-02-10T07:13:27.090Z,31.02
2018-02-10T07:15:55.016Z,29.50
2018-02-10T07:18:22.952Z,32.03
2018-02-10T07:20:50.840Z,32.50
2018-02-10T07:23:18.787Z,32.60
2018-02-10T07:25:46.711Z,33.55
2018-02-10T07:28:14.565Z,37.53
2018-02-10T07:30:42.531Z,36.00
2018-02-10T07:33:10.493Z,34.38
2018-02-10T07:35:38.408Z,33.55
2018-02-10T07:38:06.335Z,36.28
2018-02-10T07:40:34.295Z,34.42
2018-02-10T07:43:02.128Z,32.90
2018-02-10T07:45:30.123Z,32.95
2018-02-10T07:47:58.014Z,33.03
2018-02-10T07:50:25.968Z,36.45
2018-02-10T07:52:53.953Z,35.28
2018-02-10T07:55:21.940Z,35.55
2018-02-10T07:57:49.822Z,33.30
2018-02-10T08:00:17.804Z,33.47
2018-02-10T08:02:45.696Z,34.15
2018-02-10T08:05:13.544Z,32.28
2018-02-10T08:07:41.507Z,33.53
2018-02-10T08:10:09.472Z,33.80
2018-02-10T08:12:37.418Z,34.53
2018-02-10T08:15:05.456Z,31.58
2018-02-10T08:17:33.411Z,31.25
2018-02-10T08:20:01.411Z,32.60
2018-02-10T08:22:29.351Z,32.33
2018-02-10T08:24:57.431Z,33.65
2018-02-10T08:27:25.331Z,34.00
2018-02-10T08:29:53.183Z,36.27
2018-02-10T08:32:21.147Z,37.13
2018-02-10T08:34:48.952Z,38.30
2018-02-10T08:37:16.928Z,37.10
2018-02-10T08:39:44.888Z,35.27
2018-02-10T08:42:12.894Z,40.60
2018-02-10T08:44:40.827Z,38.33
2018-02-10T08:47:08.922Z,40.70
2018-02-10T08:49:36.839Z,38.87
2018-02-10T08:52:04.707Z,37.77
2018-02-10T08:54:32.620Z,38.95
2018-02-10T08:57:00.539Z,39.40
2018-02-10T08:59:28.513Z,39.40
2018-02-10T09:01:56.519Z,42.30
2018-02-10T09:04:24.486Z,41.60
2018-02-10T09:06:52.498Z,44.90
2018-02-10T09:09:20.308Z,43.77
2018-02-10T09:11:48.267Z,42.00
2018-02-10T09:14:16.200Z,44.40
2018-02-10T09:16:44.089Z,44.00
2018-02-10T09:19:12.055Z,44.77
2018-02-10T09:21:39.982Z,47.07
2018-02-10T09:24:07.943Z,43.60
2018-02-10T09:26:35.843Z,45.73
2018-02-10T09:29:03.787Z,45.07
2018-02-10T09:31:31.764Z,43.90
2018-02-10T09:33:59.741Z,44.50
2018-02-10T09:36:27.698Z,43.20
2018-02-10T09:38:55.655Z,42.50
2018-02-10T09:41:23.476Z,40.33
2018-02-10T09:43:51.590Z,42.47
2018-02-10T09:46:19.664Z,43.63
2018-02-10T09:48:47.562Z,45.83
2018-02-10T09:51:15.431Z,43.43
2018-02-10T09:53:43.388Z,39.07
2018-02-10T09:56:11.309Z,41.13
2018-02-10T09:58:39.264Z,38.80
2018-02-10T10:01:07.168Z,39.87
2018-02-10T10:03:35.054Z,40.93
2018-02-10T10:06:03.023Z,40.20
2018-02-10T10:08:31.012Z,40.00
2018-02-10T10:10:58.998Z,39.60
2018-02-10T10:13:26.878Z,40.67
2018-02-10T10:15:54.908Z,39.80
2018-02-10T10:18:22.795Z,37.73
2018-02-10T10:20:50.728Z,40.43
2018-02-10T10:23:18.674Z,40.80
2018-02-10T10:25:46.640Z,37.23
2018-02-10T10:28:14.558Z,36.17
2018-02-10T10:30:42.506Z,37.77
2018-02-10T10:33:10.430Z,36.40
2018-02-10T10:35:38.352Z,35.60
2018-02-10T10:38:06.282Z,34.47
2018-02-10T10:40:34.283Z,33.50
2018-02-10T10:43:02.324Z,35.97
2018-02-10T10:45:30.260Z,34.40
2018-02-10T10:47:58.227Z,34.77
2018-02-10T10:50:26.151Z,36.97
2018-02-10T10:52:54.096Z,34.33
2018-02-10T10:55:21.992Z,35.70
2018-02-10T10:57:49.988Z,32.60
2018-02-10T11:00:18.768Z,33.00
2018-02-10T11:02:46.756Z,31.40
2018-02-10T11:05:14.692Z,30.80
2018-02-10T11:07:42.680Z,31.60
2018-02-10T11:10:10.594Z,29.90
2018-02-10T11:12:38.628Z,29.83
2018-02-10T11:15:06.660Z,26.80
2018-02-10T11:17:34.612Z,29.73
2018-02-10T11:20:02.633Z,28.00
2018-02-10T11:22:30.599Z,28.53
2018-02-10T11:24:58.534Z,29.40
2018-02-10T11:27:26.543Z,30.30
2018-02-10T11:29:54.515Z,28.83
2018-02-10T11:32:22.561Z,27.90
2018-02-10T11:34:50.516Z,27.07
2018-02-10T11:37:18.406Z,27.40
2018-02-10T11:39:46.442Z,30.93
2018-02-10T11:42:14.340Z,28.00
2018-02-10T11:44:42.375Z,28.80
2018-02-10T11:47:10.214Z,26.40
2018-02-10T11:49:38.192Z,28.27
2018-02-10T11:52:06.806Z,28.57
2018-02-10T11:54:34.719Z,26.40
2018-02-10T11:57:02.588Z,24.90
2018-02-10T11:59:30.576Z,25.20
2018-02-10T12:01:58.408Z,23.60
2018-02-10T12:04:26.330Z,23.40
2018-02-10T12:06:54.175Z,22.30
2018-02-10T12:09:22.003Z,23.27
2018-02-10T12:11:49.904Z,21.63
2018-02-10T12:14:17.812Z,21.47
2018-02-10T12:16:45.682Z,20.20
2018-02-10T12:19:13.624Z,20.30
2018-02-10T12:21:41.675Z,23.17
2018-02-10T12:24:09.603Z,21.20
2018-02-10T12:26:37.480Z,20.33
2018-02-10T12:29:05.417Z,22.33
2018-02-10T12:31:33.324Z,19.93
2018-02-10T12:34:01.184Z,20.33
2018-02-10T12:36:29.064Z,20.67
2018-02-10T12:38:56.995Z,20.53
2018-02-10T12:41:24.884Z,20.77
2018-02-10T12:43:52.804Z,22.37
2018-02-10T12:46:20.744Z,20.77
2018-02-10T12:49:04.432Z,20.70
2018-02-10T12:51:32.339Z,20.63
2018-02-10T12:54:00.196Z,21.80
2018-02-10T12:56:28.090Z,19.80
2018-02-10T12:58:55.927Z,20.23
2018-02-10T13:01:23.831Z,19.90
2018-02-10T13:03:51.748Z,20.83
2018-02-10T13:06:19.655Z,22.00
2018-02-10T13:08:47.504Z,20.67
2018-02-10T13:11:15.440Z,20.87
2018-02-10T13:13:43.323Z,21.10
2018-02-10T13:16:11.228Z,20.17
2018-02-10T13:18:39.070Z,22.93
2018-02-10T13:21:07.108Z,22.53
2018-02-10T13:23:34.975Z,20.03
2018-02-10T13:26:02.964Z,20.60
2018-02-10T13:28:30.926Z,21.00
2018-02-10T13:30:58.836Z,19.87
2018-02-10T13:33:26.824Z,21.47
2018-02-10T13:35:54.742Z,20.10
2018-02-10T13:38:23.566Z,19.93
2018-02-10T13:40:51.426Z,20.50
2018-02-10T13:43:19.330Z,21.20
2018-02-10T13:45:47.219Z,20.37
2018-02-10T13:48:26.766Z,21.10
2018-02-10T13:50:54.664Z,20.47
2018-02-10T13:53:22.522Z,18.77
2018-02-10T13:55:50.395Z,19.67
2018-02-10T13:58:18.271Z,21.10
2018-02-10T14:00:46.145Z,21.23
2018-02-10T14:03:14.062Z,20.67
2018-02-10T14:05:41.937Z,20.33
2018-02-10T14:08:09.807Z,19.17
2018-02-10T14:10:37.723Z,19.40
2018-02-10T14:13:05.575Z,18.43
2018-02-10T14:15:33.475Z,17.80
2018-02-10T14:18:01.345Z,18.77
2018-02-10T14:20:29.259Z,18.87
2018-02-10T14:22:57.176Z,17.90
2018-02-10T14:25:25.097Z,19.80
2018-02-10T14:27:52.918Z,20.17
2018-02-10T14:30:20.756Z,18.67
2018-02-10T14:32:48.610Z,20.13
2018-02-10T14:35:16.534Z,19.70
2018-02-10T14:37:44.379Z,20.13
2018-02-10T14:40:12.232Z,20.77
2018-02-10T14:42:40.032Z,19.90
2018-02-10T14:45:07.975Z,21.50
2018-02-10T14:47:35.782Z,22.30
2018-02-10T14:50:03.630Z,21.10
2018-02-10T14:52:31.613Z,20.13
2018-02-10T14:54:59.477Z,21.80
2018-02-10T14:57:27.429Z,22.87
2018-02-10T14:59:55.282Z,21.60
2018-02-10T15:02:23.190Z,21.43
2018-02-10T15:04:51.064Z,20.20
2018-02-10T15:07:18.968Z,22.13
2018-02-10T15:09:46.819Z,22.83
2018-02-10T15:12:14.755Z,23.27
2018-02-10T15:14:42.608Z,21.77
2018-02-10T15:17:10.479Z,20.87
2018-02-10T15:19:38.804Z,22.43
2018-02-10T15:22:06.728Z,23.23
2018-02-10T15:24:34.576Z,21.70
2018-02-10T15:27:02.504Z,21.67
2018-02-10T15:32:46.116Z,21.17
2018-02-10T15:35:14.021Z,21.60
2018-02-10T15:37:41.931Z,21.47
2018-02-10T15:40:09.805Z,22.20
2018-02-10T15:42:37.732Z,22.40
2018-02-10T15:45:05.625Z,21.30
2018-02-10T15:47:33.587Z,21.00
2018-02-10T15:50:01.455Z,19.90
2018-02-10T15:52:29.208Z,22.17
2018-02-10T15:54:57.108Z,21.20
2018-02-10T15:57:24.979Z,20.77
2018-02-10T15:59:52.887Z,22.47
2018-02-10T16:02:20.743Z,22.53
2018-02-10T16:04:48.606Z,21.90
2018-02-10T16:07:16.488Z,22.90
2018-02-10T16:09:44.399Z,24.07
2018-02-10T16:12:12.264Z,23.83
2018-02-10T16:14:40.160Z,23.00
2018-02-10T16:17:07.978Z,24.10
2018-02-10T16:19:35.940Z,25.37
2018-02-10T16:22:03.809Z,23.77
2018-02-10T16:24:31.688Z,24.70
2018-02-10T16:26:59.531Z,22.73
2018-02-10T16:29:27.399Z,23.10
2018-02-10T16:31:55.288Z,23.10
2018-02-10T16:34:23.168Z,22.93
2018-02-10T16:36:51.091Z,22.40
2018-02-10T16:39:18.957Z,23.00
2018-02-10T16:41:46.889Z,22.80
2018-02-10T16:44:14.797Z,22.80
2018-02-10T16:46:42.694Z,23.10
2018-02-10T16:49:10.568Z,21.80
2018-02-10T16:51:38.456Z,23.10
2018-02-10T16:54:06.342Z,20.67
2018-02-10T16:56:34.205Z,21.40
2018-02-10T16:59:02.099Z,19.27
2018-02-10T17:01:29.944Z,20.97
2018-02-10T17:03:57.809Z,22.80
2018-02-10T17:06:25.684Z,20.67
2018-02-10T17:08:53.577Z,19.23
2018-02-10T17:11:21.388Z,20.57
2018-02-10T17:13:49.295Z,19.20
2018-02-10T17:16:17.173Z,19.47
2018-02-10T17:18:45.080Z,18.23
2018-02-10T17:21:12.913Z,18.57
2018-02-10T17:23:40.827Z,20.23
2018-02-10T17:26:08.674Z,19.50
2018-02-10T17:28:36.533Z,19.43
2018-02-10T17:31:04.407Z,20.53
2018-02-10T17:33:32.232Z,17.63
2018-02-10T17:36:00.096Z,19.33
2018-02-10T17:38:27.960Z,19.60
2018-02-10T17:40:55.876Z,18.67
2018-02-10T17:43:23.752Z,19.27
2018-02-10T17:45:51.713Z,18.60
2018-02-10T17:48:19.586Z,19.30
2018-02-10T17:50:47.477Z,20.63
2018-02-10T17:53:15.354Z,19.27
2018-02-10T17:55:43.293Z,20.60
2018-02-10T17:58:11.171Z,20.00
2018-02-10T18:00:39.061Z,18.20
2018-02-10T18:03:06.860Z,18.80
2018-02-10T18:05:34.760Z,19.00
2018-02-10T18:08:02.580Z,19.10
2018-02-10T18:10:30.459Z,20.00
2018-02-10T18:12:58.257Z,20.50
2018-02-10T18:15:26.148Z,20.10
2018-02-10T18:17:53.984Z,20.03
2018-02-10T18:20:21.888Z,18.93
2018-02-10T18:22:49.754Z,19.13
2018-02-10T18:25:17.675Z,20.83
2018-02-10T18:27:45.556Z,21.10
2018-02-10T18:30:13.460Z,20.03
2018-02-10T18:32:41.276Z,21.37
2018-02-10T18:35:09.077Z,19.90
2018-02-10T18:37:36.914Z,22.87
2018-02-10T18:40:04.806Z,21.87
2018-02-10T18:42:32.699Z,22.60
2018-02-10T18:45:00.585Z,21.90
2018-02-10T18:47:28.461Z,23.67
2018-02-10T18:49:56.323Z,22.40
2018-02-10T18:52:24.201Z,23.60
2018-02-10T18:54:52.017Z,22.67
2018-02-10T18:57:19.911Z,22.70
2018-02-10T18:59:47.730Z,22.63
2018-02-10T19:02:15.546Z,22.93
2018-02-10T19:04:43.416Z,22.90
2018-02-10T19:07:11.321Z,25.00
2018-02-10T19:09:39.184Z,23.97
2018-02-10T19:12:07.024Z,25.03
2018-02-10T19:14:34.903Z,22.77
2018-02-10T19:17:02.840Z,22.77
2018-02-10T19:19:30.703Z,22.97
2018-02-10T19:21:58.606Z,24.70
2018-02-10T19:24:27.651Z,22.80
2018-02-10T19:26:55.543Z,22.83
2018-02-10T19:29:23.415Z,22.13
2018-02-10T19:31:51.257Z,24.00
2018-02-10T19:34:19.189Z,22.20
2018-02-10T19:36:47.054Z,25.17
2018-02-10T19:39:15.008Z,22.80
2018-02-10T19:41:42.892Z,22.80
2018-02-10T19:44:10.868Z,23.57
2018-02-10T19:46:38.711Z,22.40
2018-02-10T19:49:06.605Z,21.37
2018-02-10T19:51:34.480Z,23.00
2018-02-10T19:54:02.411Z,22.90
2018-02-10T19:56:30.276Z,23.80
2018-02-10T19:58:58.176Z,23.20
2018-02-10T20:01:26.007Z,22.73
2018-02-10T20:03:53.859Z,24.80
2018-02-10T20:06:21.708Z,24.60
2018-02-10T20:08:49.591Z,26.67
2018-02-10T20:11:17.416Z,25.57
2018-02-10T20:13:45.311Z,27.20
2018-02-10T20:16:13.180Z,26.47
2018-02-10T20:18:41.072Z,25.17
2018-02-10T20:21:08.980Z,24.57
2018-02-10T20:23:36.818Z,23.77
2018-02-10T20:26:04.751Z,24.20
2018-02-10T20:28:32.591Z,24.57
2018-02-10T20:31:00.412Z,25.23
2018-02-10T20:33:28.271Z,24.83
2018-02-10T20:35:56.166Z,24.80
2018-02-10T20:38:24.035Z,23.70
2018-02-10T20:40:51.960Z,27.77
2018-02-10T20:43:19.791Z,25.10
2018-02-10T20:45:47.739Z,25.10
2018-02-10T20:48:15.660Z,25.60
2018-02-10T20:50:43.548Z,24.97
2018-02-10T20:53:11.429Z,23.17
2018-02-10T20:55:39.360Z,25.70
2018-02-10T20:58:07.217Z,25.67
2018-02-10T21:00:35.076Z,24.63
2018-02-10T21:03:02.984Z,24.77
2018-02-10T21:05:30.779Z,25.57
2018-02-10T21:07:58.753Z,25.60
2018-02-10T21:10:26.655Z,25.07
2018-02-10T21:12:54.635Z,25.23
2018-02-10T21:15:22.510Z,25.17
2018-02-10T21:17:50.407Z,26.23
2018-02-10T21:20:18.299Z,24.97
2018-02-10T21:22:46.215Z,25.83
2018-02-10T21:25:14.136Z,27.43
2018-02-10T21:27:42.068Z,25.80
2018-02-10T21:30:09.913Z,24.03
2018-02-10T21:32:37.803Z,25.97
2018-02-10T21:35:05.677Z,25.40
2018-02-10T21:37:33.532Z,25.57
2018-02-10T21:40:01.423Z,25.87
2018-02-10T21:42:29.288Z,26.90
2018-02-10T21:44:57.248Z,26.47
2018-02-10T21:47:25.085Z,26.20
2018-02-10T21:49:52.940Z,25.80
2018-02-10T21:52:20.740Z,27.57
2018-02-10T21:54:48.767Z,26.10
2018-02-10T21:57:16.585Z,28.10
2018-02-10T21:59:44.386Z,24.60
2018-02-10T22:02:12.270Z,26.47
2018-02-10T22:04:40.190Z,26.00
2018-02-10T22:07:07.990Z,27.40
2018-02-10T22:09:35.891Z,26.97
2018-02-10T22:12:03.755Z,25.90
2018-02-10T22:14:31.715Z,27.17
2018-02-10T22:16:59.596Z,26.53
2018-02-10T22:19:27.492Z,26.57
2018-02-10T22:21:55.378Z,28.73
2018-02-10T22:24:23.192Z,25.90
2018-02-10T22:26:51.122Z,27.67
2018-02-10T22:29:18.954Z,26.97
2018-02-10T22:31:46.857Z,25.47
2018-02-10T22:34:14.717Z,27.17
2018-02-10T22:36:42.629Z,26.47
2018-02-10T22:39:10.452Z,27.47
2018-02-10T22:41:38.305Z,26.20
2018-02-10T22:44:06.118Z,25.20
2018-02-10T22:46:34.035Z,27.17
2018-02-10T22:49:01.855Z,27.20
2018-02-10T22:51:29.687Z,29.37
2018-02-10T22:53:57.739Z,27.20
2018-02-10T22:56:25.634Z,27.27
2018-02-10T22:58:53.516Z,25.27
2018-02-10T23:01:21.382Z,25.53
2018-02-10T23:03:49.256Z,26.63
2018-02-10T23:06:17.112Z,27.60
2018-02-10T23:08:44.940Z,26.07
2018-02-10T23:11:12.755Z,26.63
2018-02-10T23:13:40.666Z,25.97
2018-02-10T23:16:08.527Z,26.20
2018-02-10T23:18:36.447Z,25.33
2018-02-10T23:21:04.279Z,26.40
2018-02-10T23:23:32.178Z,25.00
2018-02-10T23:25:59.991Z,26.30
2018-02-10T23:28:27.831Z,26.20
2018-02-10T23:30:55.658Z,25.70
2018-02-10T23:33:23.541Z,27.83
2018-02-10T23:35:51.399Z,27.87
2018-02-10T23:38:19.256Z,26.63
2018-02-10T23:40:47.072Z,26.53
2018-02-10T23:43:14.943Z,26.20
2018-02-10T23:45:42.790Z,26.57
2018-02-10T23:48:10.697Z,26.03
2018-02-10T23:50:38.599Z,26.23
2018-02-10T23:53:06.453Z,25.90
2018-02-10T23:55:34.397Z,25.77
2018-02-10T23:58:02.210Z,27.20
